Haleyville, Alabama
Current Conditions -  °F | °C
As of 2:56 PM on Saturday 22 Nov 2014 (Local Time) from K1M4 Reporting Station
Clear Clear  
Wind Chill: 64°   Ceiling: Unl
Heat Index: 64°   Visibility: 10mi
Dew Point: 46°   Wind: 9mph
Humidity: 52%   Direction: 140°SE
Pressure: 30.18"   Gusts: 20mph
Location:  34.23°N, 87.62°W
Report Text: K1M4 222056Z AUTO 14008G17KT 100V180 10SM CLR 18/08 A3018 RMK AO2 56031 T01770077 SLP229
Loading
Personal Weather Stations






























Interactive Weather Map New forecast layout! Learn more

10-Day Weather Forecast

Advertisements
Track Severe Weather on mobile